Terminal Aerodrome Forecast
Issued by NWS

Home | Current Version | Previous Version | Text Only | Print | Product List | Glossary On
Versions: 1 2 3 4 5 6 7 8 9 10 11 12 13 14 15 16 17 18 19 20
000
FTUS43 KAPX 041737
TAFMBL
TAF
KMBL 041737Z 0418/0518 31012G20KT P6SM -SHSN BKN026
     FM042100 29012KT 3SM -SHSN OVC026
     FM050100 30009KT 2SM -SHSN OVC022
     FM050800 VRB03KT P6SM VCSH BKN035
     FM051600 29007KT 5SM -SHSN OVC018
      AMD LTD TO CLD VIS AND WIND=

USA.gov is the U.S. government's official web portal to all federal, state and local government web resources and services.